Tables

Today Raw
Time Temp (F) Dwpt (F) Hum (%) Pres (inHg) Wnd Dir Wnd Spd (mph) Wnd Spd Gst (mph) Solr Rad (W/m^2) Cldbs (ft) Prcp Dly (in)
08:28 59.9 18.7 20 29.89 ESE 1.6 2.5 70.66 9764 0.0
08:23 59.4 18.3 20 29.89 East 2.9 4.9 68.35 9741 0.0
08:18 58.8 17.8 20 29.89 ENE 0.0 0.0 66.62 9718 0.0
08:13 58.1 17.2 20 29.89 East 0.0 0.0 64.36 9695 0.0
08:08 57.6 16.9 20 29.89 ESE 2.9 4.9 62.84 9650 0.0
08:03 56.8 17.4 21 29.88 SE 0.7 2.5 60.41 9355 0.0
07:58 56.3 15.8 20 29.88 East 0.0 0.0 57.37 9605 0.0
07:53 55.8 17.4 22 29.88 ESE 1.8 2.5 55.24 9127 0.0
07:47 55.4 17.2 22 29.88 ESE 2.2 2.5 51.77 9082 0.0
07:42 55.0 16.9 22 29.88 ESE 0.2 2.5 48.99 9059 0.0
07:37 54.7 17.6 23 29.88 ESE 3.4 4.9 45.91 8832 0.0
07:32 54.5 19.4 25 29.88 ESE 1.8 2.5 42.27 8377 0.0
07:27 54.3 19.2 25 29.88 ESE 0.9 2.5 38.49 8377 0.0
07:22 54.1 21.7 28 29.88 East 0.0 0.0 34.41 7764 0.0
07:17 54.1 21.7 28 29.87 ESE 0.0 0.0 30.28 7764 0.0
07:12 54.1 22.6 29 29.87 ESE 0.0 0.0 25.68 7559 0.0
07:07 54.1 22.6 29 29.87 East 0.0 0.0 20.69 7559 0.0
07:01 54.1 21.7 28 29.87 East 0.0 0.0 16.05 7764 0.0
06:56 54.3 21.9 28 29.87 ESE 0.0 0.0 6.89 7764 0.0
06:51 54.3 21.0 27 29.86 ESE 0.9 2.5 2.55 7968 0.0
06:46 54.3 20.1 26 29.87 ESE 0.0 0.0 0.0 8173 0.0
06:41 54.3 20.1 26 29.86 East 0.0 0.0 0.0 8173 0.0
06:36 54.3 20.1 26 29.86 East 0.0 0.0 0.0 8173 0.0
06:31 54.3 19.2 25 29.86 ESE 0.2 2.5 0.0 8377 0.0
06:26 54.5 21.2 27 29.86 ESE 1.6 2.5 0.0 7968 0.0
06:21 54.5 21.2 27 29.86 ESE 0.0 0.0 0.0 7968 0.0
06:16 54.5 19.4 25 29.86 SE 0.7 2.5 0.0 8377 0.0
06:11 54.5 19.4 25 29.86 ESE 2.5 2.5 0.0 8377 0.0
06:06 54.5 19.4 25 29.86 SE 1.3 2.5 0.0 8377 0.0
06:01 54.7 20.5 26 29.86 ESE 1.8 4.9 0.0 8173 0.0
05:56 54.7 20.5 26 29.86 ESE 0.0 0.0 0.0 8173 0.0
05:51 54.7 19.6 25 29.86 ESE 0.2 2.5 0.0 8377 0.0
05:45 54.9 18.9 24 29.85 ESE 1.6 2.5 0.0 8582 0.0
05:40 55.0 18.9 24 29.85 SE 2.2 2.5 0.0 8605 0.0
05:35 55.0 19.9 25 29.85 ESE 0.0 0.0 0.0 8377 0.0
05:30 55.2 19.0 24 29.85 ESE 0.7 2.5 0.0 8627 0.0
05:25 55.4 18.3 23 29.85 ESE 0.7 2.5 0.0 8832 0.0
05:20 55.4 17.2 22 29.85 ESE 1.3 2.5 0.0 9082 0.0
05:15 55.6 19.4 24 29.84 ESE 3.1 4.9 0.0 8627 0.0
05:10 55.6 19.4 24 29.85 ESE 1.6 2.5 0.0 8627 0.0
05:05 55.6 19.4 24 29.85 ESE 0.0 0.0 0.0 8627 0.0
05:00 55.4 18.3 23 29.84 SE 1.3 2.5 0.0 8832 0.0
04:55 55.4 18.3 23 29.84 ESE 0.0 0.0 0.0 8832 0.0
04:49 55.4 18.3 23 29.84 SE 2.2 2.5 0.0 8832 0.0
04:44 55.4 18.3 23 29.84 ESE 0.9 2.5 0.0 8832 0.0
04:39 55.4 18.3 23 29.85 ESE 1.6 2.5 0.0 8832 0.0
04:34 55.4 19.2 24 29.84 ESE 0.0 0.0 0.0 8627 0.0
04:29 55.6 20.3 25 29.84 ESE 0.0 0.0 0.0 8423 0.0
04:24 55.6 19.4 24 29.84 ESE 0.2 2.5 0.0 8627 0.0
04:19 55.6 19.4 24 29.84 ESE 0.0 0.0 0.0 8627 0.0
04:14 55.6 20.3 25 29.84 East 0.0 0.0 0.0 8423 0.0
04:09 55.8 19.6 24 29.84 East 0.0 0.0 0.0 8627 0.0
04:04 55.9 19.8 24 29.84 East 0.0 0.0 0.0 8605 0.0
03:59 55.9 19.8 24 29.84 East 0.0 0.0 0.0 8605 0.0
03:53 55.8 19.6 24 29.84 ESE 0.7 2.5 0.0 8627 0.0
03:48 55.6 19.4 24 29.84 East 0.0 0.0 0.0 8627 0.0
03:43 55.4 19.2 24 29.83 East 0.0 0.0 0.0 8627 0.0
03:38 55.2 20.1 25 29.84 ESE 0.9 2.5 0.0 8377 0.0
03:33 55.2 21.0 26 29.84 East 0.0 0.0 0.0 8173 0.0
03:28 55.2 25.2 31 29.84 ESE 0.0 0.0 0.0 7218 0.0
03:23 55.4 23.7 29 29.84 ESE 0.0 0.0 0.0 7605 0.0
03:18 55.8 23.2 28 29.84 ESE 0.0 0.0 0.0 7809 0.0
03:13 55.9 23.4 28 29.84 SE 0.0 0.0 0.0 7786 0.0
03:08 55.9 25.7 31 29.84 ESE 0.0 0.0 0.0 7264 0.0
03:03 55.9 26.6 32 29.84 East 0.0 0.0 0.0 7059 0.0
02:57 55.8 24.8 30 29.84 East 0.0 0.0 0.0 7445 0.0
02:52 55.6 24.6 30 29.84 ESE 2.9 4.9 0.0 7445 0.0
02:47 55.4 26.1 32 29.84 East 1.3 2.5 0.0 7059 0.0
02:42 55.0 27.1 34 29.84 East 0.0 0.0 0.0 6741 0.0
02:37 55.0 27.9 35 29.84 ESE 0.0 0.0 0.0 6559 0.0
02:32 54.9 25.5 32 29.84 East 0.0 0.0 0.0 7082 0.0
02:27 54.9 26.2 33 29.84 East 0.0 0.0 0.0 6923 0.0
02:22 54.9 24.1 30 29.84 East 0.0 0.0 0.0 7400 0.0
02:17 55.0 23.4 29 29.84 ESE 0.0 0.0 0.0 7582 0.0
02:12 55.2 24.4 30 29.84 ESE 0.0 0.0 0.0 7400 0.0
02:07 55.6 24.6 30 29.84 SSE 0.0 0.0 0.0 7445 0.0
02:02 55.9 26.6 32 29.84 ESE 0.0 0.0 0.0 7059 0.0
01:57 56.1 24.3 29 29.84 ESE 0.0 0.0 0.0 7627 0.0
01:52 56.5 27.0 32 29.84 ESE 0.0 0.0 0.0 7105 0.0
01:47 56.5 27.0 32 29.83 ESE 0.0 0.0 0.0 7105 0.0
01:41 56.5 27.0 32 29.84 ESE 0.0 0.0 0.0 7105 0.0
01:36 56.7 27.1 32 29.84 ESE 0.0 0.0 0.0 7127 0.0
01:31 56.7 24.8 29 29.84 East 0.0 0.0 0.0 7650 0.0
01:26 56.8 22.3 26 29.84 East 0.0 0.0 0.0 8241 0.0
01:21 56.8 22.3 26 29.84 East 0.0 0.0 0.0 8241 0.0
01:16 57.0 23.4 27 29.84 East 0.0 0.0 0.0 8036 0.0
01:11 57.2 21.7 25 29.83 East 0.0 0.0 0.0 8468 0.0
01:06 57.4 20.8 24 29.83 East 0.0 0.0 0.0 8718 0.0
01:01 57.6 21.0 24 29.83 East 0.0 0.0 0.0 8718 0.0
00:56 57.6 20.1 23 29.83 ENE 0.7 2.5 0.0 8923 0.0
00:51 57.6 20.1 23 29.83 ENE 0.0 0.0 0.0 8923 0.0
00:46 57.6 20.1 23 29.83 East 0.0 0.0 0.0 8923 0.0
00:41 57.4 19.9 23 29.84 East 0.0 0.0 0.0 8923 0.0
00:36 57.4 19.9 23 29.83 ENE 0.0 0.0 0.0 8923 0.0
00:31 57.2 19.8 23 29.83 ENE 0.0 0.0 0.0 8900 0.0
00:25 57.2 19.8 23 29.83 East 0.0 0.0 0.0 8900 0.0
00:20 57.2 19.8 23 29.83 ENE 0.0 0.0 0.0 8900 0.0
00:17 57.2 19.8 23 29.83 ENE 0.9 2.5 0.0 8900 0.0
00:12 57.2 20.8 24 29.83 East 0.0 0.0 0.0 8673 0.0
00:07 57.4 18.9 22 29.82 SE 0.0 0.0 0.0 9150 0.0
00:02 57.6 19.0 22 29.82 East 0.0 0.0 0.0 9173 0.0
Today Summary
Cldbs (ft) Dwpt (F) Hum (%) Prcp Dly (in) Pres (inHg) Solr Rad (W/m^2) Temp (F) Wnd Spd (mph) Wnd Spd Gst (mph)
Min 6559.0 15.8 20.0 0.0 29.82 0.0 54.1 0.0 0.0
Avg 8302.81 21.01 25.75 0.0 29.85 8.61 55.79 0.52 1.03
Max 9764.0 27.9 35.0 0.0 29.89 70.66 59.9 3.4 4.9
Day Summary
Cldbs (ft) Dwpt (F) Hum (%) Prcp Dly (in) Pres (inHg) Solr Rad (W/m^2) Temp (F) Wnd Spd (mph) Wnd Spd Gst (mph)
Min 6559.0 10.6 10.0 0.0 29.79 0.0 52.5 0.0 0.0
Avg 10011.05 20.2 20.27 0.0 29.84 149.73 62.48 1.39 2.19
Max 14059.0 28.0 35.0 0.0 29.92 508.82 74.7 7.2 10.1
Week Summary
Cldbs (ft) Dwpt (F) Hum (%) Prcp Dly (in) Pres (inHg) Solr Rad (W/m^2) Temp (F) Wnd Spd (mph) Wnd Spd Gst (mph)
Min 2400.0 10.6 10.0 0.0 29.76 0.0 51.4 0.0 0.0
Avg 11064.26 23.78 18.47 0.0 29.87 152.12 70.7 1.56 2.34
Max 14809.0 47.1 72.0 0.02 30.09 647.42 88.5 11.9 12.5
Month Summary
Cldbs (ft) Dwpt (F) Hum (%) Prcp Dly (in) Pres (inHg) Solr Rad (W/m^2) Temp (F) Wnd Spd (mph) Wnd Spd Gst (mph)
Min 2400.0 10.6 10.0 0.0 29.68 0.0 51.4 0.0 0.0
Avg 12599.16 26.7 15.07 0.0 29.84 172.8 80.38 1.82 2.66
Max 15832.0 54.5 72.0 0.02 30.09 793.78 106.9 31.3 37.6
Year Summary
Cldbs (ft) Dwpt (F) Hum (%) Prcp Dly (in) Pres (inHg) Solr Rad (W/m^2) Temp (F) Wnd Spd (mph) Wnd Spd Gst (mph)
Min 423.0 9.7 10.0 0.0 29.29 0.0 31.1 0.0 0.0
Avg 7144.95 34.14 43.19 0.02 30.0 128.76 63.82 1.43 2.19
Max 15832.0 65.7 99.0 1.32 30.64 835.58 106.9 35.3 45.0